Time;durP1;ratioP1;P1;durP2;ratioP2;P2;SDS_P1;SDS_P2;PMS_P1;PMS_P2;Temp;Humidity;BMP_temperature;BMP_pressure;BME280_temperature;BME280_humidity;BME280_pressure;Samples;Min_cycle;Max_cycle;Signal;HPM_P1;HPM_P2
2023/04/24 00:00:10;;;;;;;;;;;;;;;16.66;47.07;99166.12;4467080;32;34344;-76
2023/04/24 00:02:40;;;;;;;;;;;;;;;16.53;48.69;99174.69;4466322;32;34494;-76
2023/04/24 00:05:08;;;;;;;;;;;;;;;16.05;50.03;99170.66;4465115;32;33593;-76
2023/04/24 00:07:35;;;;;;;;;;;;;;;15.65;51.17;99184.03;4469409;32;34910;-75
2023/04/24 00:10:02;;;;;;;;;;;;;;;16.06;49.84;99175.03;4466774;32;35023;-76
2023/04/24 00:12:30;;;;;;;;;;;;;;;16.55;48.37;99175.59;4458953;32;34289;-75
2023/04/24 00:14:57;;;;;;;;;;;;;;;17.00;47.67;99165.59;4468695;32;33460;-75
2023/04/24 00:17:24;;;;;;;;;;;;;;;17.27;47.17;99164.94;4469336;32;34858;-76
2023/04/24 00:19:58;;;;;;;;;;;;;;;16.80;48.02;99168.00;4469251;32;33859;-76
2023/04/24 00:22:25;;;;;;;;;;;;;;;16.16;51.04;99176.88;4469240;32;34260;-76
2023/04/24 00:24:53;;;;;;;;;;;;;;;16.14;52.82;99175.12;4467089;32;33666;-76
2023/04/24 00:27:20;;;;;;;;;;;;;;;16.21;50.72;99167.38;4463265;32;34202;-76
2023/04/24 00:29:48;;;;;;;;;;;;;;;15.69;53.33;99179.72;4465621;32;34810;-76
2023/04/24 00:32:15;;;;;;;;;;;;;;;16.01;53.03;99168.84;4457404;32;33706;-76
2023/04/24 00:34:43;;;;;;;;;;;;;;;16.59;50.88;99164.31;4468449;32;33485;-75
2023/04/24 00:37:11;;;;;;;;;;;;;;;16.75;50.12;99162.72;4461571;32;34296;-76
2023/04/24 00:39:38;;;;;;;;;;;;;;;16.37;51.66;99147.50;4468845;32;33695;-76
2023/04/24 00:42:06;;;;;;;;;;;;;;;16.19;50.66;99142.09;4456474;32;34577;-75
2023/04/24 00:44:34;;;;;;;;;;;;;;;16.03;50.50;99141.00;4467994;32;33111;-75
2023/04/24 00:47:02;;;;;;;;;;;;;;;16.42;51.11;99135.38;4468999;32;33299;-76
2023/04/24 00:49:29;;;;;;;;;;;;;;;16.42;52.36;99138.00;4468811;32;34302;-75
2023/04/24 00:51:56;;;;;;;;;;;;;;;15.96;51.85;99140.06;4461678;32;34150;-75
2023/04/24 00:54:24;;;;;;;;;;;;;;;15.96;51.26;99141.81;4468715;32;34274;-75
2023/04/24 00:56:52;;;;;;;;;;;;;;;15.98;51.77;99138.34;4461668;32;34540;-75
2023/04/24 00:59:19;;;;;;;;;;;;;;;16.02;52.52;99147.13;4451834;32;34172;-76
2023/04/24 01:01:46;;;;;;;;;;;;;;;15.56;52.95;99151.69;4453312;32;35554;-75
2023/04/24 01:04:14;;;;;;;;;;;;;;;16.17;52.39;99136.84;4467163;32;33445;-76
2023/04/24 01:06:41;;;;;;;;;;;;;;;15.95;51.78;99135.69;4467407;32;34823;-75
2023/04/24 01:09:09;;;;;;;;;;;;;;;15.92;51.79;99135.69;4456877;32;33961;-75
2023/04/24 01:11:36;;;;;;;;;;;;;;;15.50;51.86;99140.28;4453152;32;34758;-76
2023/04/24 01:14:04;;;;;;;;;;;;;;;15.66;52.15;99140.50;4468136;32;34795;-76
2023/04/24 01:16:32;;;;;;;;;;;;;;;16.03;51.48;99128.84;4438907;32;874691;-76
2023/04/24 01:19:00;;;;;;;;;;;;;;;16.34;50.48;99121.38;4454247;32;34055;-76
2023/04/24 01:21:27;;;;;;;;;;;;;;;15.91;52.16;99124.34;4468364;32;34631;-76
2023/04/24 01:23:56;;;;;;;;;;;;;;;16.09;52.26;99125.44;4453707;32;33767;-76
2023/04/24 01:26:25;;;;;;;;;;;;;;;16.14;52.14;99113.28;4467418;32;34140;-76
2023/04/24 01:28:52;;;;;;;;;;;;;;;16.04;55.37;99101.00;4466888;32;33983;-76
2023/04/24 01:31:20;;;;;;;;;;;;;;;15.88;55.46;99095.59;4453042;32;35124;-76
2023/04/24 01:33:47;;;;;;;;;;;;;;;15.72;55.42;99093.59;4464511;32;33882;-76
2023/04/24 01:36:14;;;;;;;;;;;;;;;15.73;55.82;99105.84;4466028;32;33991;-76
2023/04/24 01:38:42;;;;;;;;;;;;;;;15.35;55.51;99100.94;4453273;32;33594;-76
2023/04/24 01:41:09;;;;;;;;;;;;;;;15.24;55.67;99105.09;4466431;32;34351;-76
2023/04/24 01:43:36;;;;;;;;;;;;;;;15.36;55.99;99102.69;4451521;32;34070;-76
2023/04/24 01:46:03;;;;;;;;;;;;;;;15.44;55.85;99101.06;4465982;32;34900;-76
2023/04/24 01:48:34;;;;;;;;;;;;;;;15.38;55.72;99093.16;4453327;32;34222;-75
2023/04/24 01:51:02;;;;;;;;;;;;;;;15.31;56.17;99091.31;4461389;32;34002;-75
2023/04/24 01:53:29;;;;;;;;;;;;;;;15.75;55.17;99088.44;4469443;32;33072;-76
2023/04/24 01:55:57;;;;;;;;;;;;;;;15.46;55.29;99081.09;4467179;32;33454;-75
2023/04/24 01:58:24;;;;;;;;;;;;;;;15.50;55.84;99072.44;4466769;32;33990;-76
2023/04/24 02:00:52;;;;;;;;;;;;;;;15.47;56.60;99077.63;4467343;32;33873;-75
2023/04/24 02:03:20;;;;;;;;;;;;;;;15.24;57.28;99074.69;4453247;32;33044;-75
2023/04/24 02:05:48;;;;;;;;;;;;;;;15.57;55.96;99062.97;4468071;32;34961;-75
2023/04/24 02:08:15;;;;;;;;;;;;;;;15.47;55.92;99059.38;4454948;32;33785;-76
2023/04/24 02:10:43;;;;;;;;;;;;;;;15.25;57.13;99055.56;4466784;32;33819;-76
2023/04/24 02:13:10;;;;;;;;;;;;;;;15.50;56.11;99054.16;4452703;32;34171;-75
2023/04/24 02:15:38;;;;;;;;;;;;;;;15.49;56.31;99054.13;4456881;32;33643;-75
2023/04/24 02:18:06;;;;;;;;;;;;;;;15.62;57.24;99049.97;4452112;32;34016;-75
2023/04/24 02:20:35;;;;;;;;;;;;;;;15.68;57.18;99047.41;4459784;32;34421;-75
2023/04/24 02:23:02;;;;;;;;;;;;;;;15.68;57.95;99047.41;4438879;32;33589;-75
2023/04/24 02:25:29;;;;;;;;;;;;;;;15.65;58.59;99055.22;4453152;32;34700;-75
2023/04/24 02:27:57;;;;;;;;;;;;;;;15.76;58.12;99053.66;4457196;32;33854;-75
2023/04/24 02:30:26;;;;;;;;;;;;;;;15.03;60.87;99054.41;4451594;32;34375;-75
2023/04/24 02:32:53;;;;;;;;;;;;;;;15.77;58.71;99049.31;4457100;32;34194;-76
2023/04/24 02:35:21;;;;;;;;;;;;;;;15.86;58.13;99047.69;4453639;32;34185;-75
2023/04/24 02:37:48;;;;;;;;;;;;;;;15.92;57.92;99041.66;4454043;32;35013;-76
2023/04/24 02:40:15;;;;;;;;;;;;;;;15.69;57.95;99047.44;4453049;32;35192;-76
2023/04/24 02:42:42;;;;;;;;;;;;;;;15.53;58.51;99040.28;4453739;32;34263;-76
2023/04/24 02:45:10;;;;;;;;;;;;;;;15.51;58.52;99037.66;4458476;32;33903;-76
2023/04/24 02:47:37;;;;;;;;;;;;;;;15.60;58.78;99041.22;4454988;32;33774;-75
2023/04/24 02:50:05;;;;;;;;;;;;;;;15.80;58.40;99045.00;4447197;32;34340;-75
2023/04/24 02:52:32;;;;;;;;;;;;;;;16.14;56.99;99034.91;4450074;32;33673;-76
2023/04/24 02:54:59;;;;;;;;;;;;;;;15.43;58.72;99039.31;4450955;32;34254;-75
2023/04/24 02:57:27;;;;;;;;;;;;;;;15.12;59.34;99031.06;4463198;32;34969;-75
2023/04/24 02:59:54;;;;;;;;;;;;;;;14.92;59.52;99038.56;4453966;32;34500;-75
2023/04/24 03:02:21;;;;;;;;;;;;;;;15.00;59.68;99032.59;4464604;32;34271;-75
2023/04/24 03:04:49;;;;;;;;;;;;;;;14.85;60.86;99033.25;4449247;32;34274;-76
2023/04/24 03:07:16;;;;;;;;;;;;;;;14.86;60.92;99027.19;4454303;32;33787;-76
2023/04/24 03:09:43;;;;;;;;;;;;;;;14.84;61.54;99032.37;4462259;32;35043;-76
2023/04/24 03:12:11;;;;;;;;;;;;;;;14.77;61.00;99019.22;4445102;32;33470;-76
2023/04/24 03:14:38;;;;;;;;;;;;;;;14.80;61.81;99020.16;4460530;32;33583;-76
2023/04/24 03:17:06;;;;;;;;;;;;;;;15.25;60.40;99023.38;4474983;32;33536;-75
2023/04/24 03:19:33;;;;;;;;;;;;;;;15.27;60.35;99022.53;4475617;32;35098;-75
2023/04/24 03:22:02;;;;;;;;;;;;;;;15.52;59.59;99018.50;4469902;32;35014;-75
2023/04/24 03:24:30;;;;;;;;;;;;;;;15.56;59.10;99019.44;4459336;32;33882;-75
2023/04/24 03:26:58;;;;;;;;;;;;;;;15.51;59.18;99014.16;4469910;32;34139;-75
2023/04/24 03:29:25;;;;;;;;;;;;;;;15.09;60.11;99011.88;4469805;32;34729;-75
2023/04/24 03:31:56;;;;;;;;;;;;;;;15.19;60.57;99023.31;4469732;32;32602;-75
2023/04/24 03:34:24;;;;;;;;;;;;;;;15.43;60.05;99017.53;4471736;32;34232;-76
2023/04/24 03:36:52;;;;;;;;;;;;;;;15.82;58.58;99017.16;4470378;32;34263;-75
2023/04/24 03:39:20;;;;;;;;;;;;;;;15.28;59.86;99013.00;4471848;32;34534;-76
2023/04/24 03:41:48;;;;;;;;;;;;;;;14.86;61.19;99019.38;4474158;32;33623;-76
2023/04/24 03:44:16;;;;;;;;;;;;;;;14.82;62.31;99020.19;4478128;32;34232;-75
2023/04/24 03:46:44;;;;;;;;;;;;;;;14.58;63.03;99013.69;4478555;32;33963;-75
2023/04/24 03:49:12;;;;;;;;;;;;;;;14.55;63.02;99016.25;4475884;32;35789;-75
2023/04/24 03:51:39;;;;;;;;;;;;;;;14.69;63.50;99001.72;4457993;32;32977;-75
2023/04/24 03:54:07;;;;;;;;;;;;;;;14.82;62.92;98996.72;4473564;32;34880;-76
2023/04/24 03:56:35;;;;;;;;;;;;;;;14.47;64.31;98999.62;4469034;32;34129;-75
2023/04/24 03:59:02;;;;;;;;;;;;;;;14.43;64.38;99003.00;4469169;32;34480;-76
2023/04/24 04:01:30;;;;;;;;;;;;;;;14.64;64.04;98992.97;4469332;32;34349;-76
2023/04/24 04:03:58;;;;;;;;;;;;;;;14.73;63.90;99003.53;4473108;32;34312;-76
2023/04/24 04:06:26;;;;;;;;;;;;;;;14.73;64.56;99013.94;4469153;32;34628;-75
2023/04/24 04:08:54;;;;;;;;;;;;;;;14.72;64.48;99020.03;4470642;32;35095;-75
2023/04/24 04:11:21;;;;;;;;;;;;;;;14.78;64.67;99026.19;4468501;32;33508;-75
2023/04/24 04:13:50;;;;;;;;;;;;;;;14.90;63.54;99018.56;4456248;32;34746;-75
2023/04/24 04:16:17;;;;;;;;;;;;;;;15.22;62.31;99011.19;4467411;32;34295;-75
2023/04/24 04:18:45;;;;;;;;;;;;;;;14.75;65.70;99011.38;4456368;32;34607;-75
2023/04/24 04:21:12;;;;;;;;;;;;;;;14.68;65.81;99015.63;4467043;32;33540;-76
2023/04/24 04:23:40;;;;;;;;;;;;;;;15.04;64.57;99024.84;4467930;32;34264;-76
2023/04/24 04:26:08;;;;;;;;;;;;;;;14.83;65.74;99024.53;4454944;32;33890;-75
2023/04/24 04:28:37;;;;;;;;;;;;;;;14.79;66.38;99020.13;4457096;32;34020;-75
2023/04/24 04:31:05;;;;;;;;;;;;;;;14.62;66.22;99031.16;4468234;32;33344;-75
2023/04/24 04:33:32;;;;;;;;;;;;;;;14.37;67.26;99035.06;4462884;32;34363;-75
2023/04/24 04:36:01;;;;;;;;;;;;;;;14.78;66.30;99027.06;4469343;32;34065;-74
2023/04/24 04:38:30;;;;;;;;;;;;;;;15.08;64.10;99013.59;4468775;32;34412;-75
2023/04/24 04:40:58;;;;;;;;;;;;;;;14.71;66.02;99013.03;4453600;32;33630;-76
2023/04/24 04:43:27;;;;;;;;;;;;;;;14.64;66.01;99019.03;4468783;32;34654;-75
2023/04/24 04:45:55;;;;;;;;;;;;;;;14.53;65.20;99021.44;4468632;32;34318;-75
2023/04/24 04:48:24;;;;;;;;;;;;;;;14.85;64.68;99022.81;4466293;32;34579;-75
2023/04/24 04:50:51;;;;;;;;;;;;;;;14.83;64.87;99014.09;4453522;32;34422;-74
2023/04/24 04:53:19;;;;;;;;;;;;;;;14.73;65.59;99008.72;4470624;32;34283;-75
2023/04/24 04:55:47;;;;;;;;;;;;;;;15.08;64.68;99004.88;4466198;32;34861;-75
2023/04/24 04:58:14;;;;;;;;;;;;;;;15.53;63.02;99004.63;4466766;32;34003;-76
2023/04/24 05:00:43;;;;;;;;;;;;;;;15.24;63.69;99011.19;4467505;32;33476;-75
2023/04/24 05:03:10;;;;;;;;;;;;;;;15.33;62.92;99011.31;4469244;32;34891;-79
2023/04/24 05:05:50;;;;;;;;;;;;;;;15.48;62.93;99005.41;4465479;32;33771;-77
2023/04/24 05:08:18;;;;;;;;;;;;;;;15.31;63.56;99002.59;4466964;32;34372;-75
2023/04/24 05:10:54;;;;;;;;;;;;;;;15.52;63.44;99012.44;4466964;32;33109;-76
2023/04/24 05:13:22;;;;;;;;;;;;;;;15.57;63.02;99010.75;4454982;32;33766;-75
2023/04/24 05:16:23;;;;;;;;;;;;;;;15.53;62.95;99003.75;4454255;32;34250;-76
2023/04/24 05:18:52;;;;;;;14.60;9.27;;;;;;;15.36;64.25;99006.16;4453035;32;33912;-75
2023/04/24 05:21:20;;;;;;;15.27;10.40;;;;;;;15.45;64.22;99006.28;4456132;32;33784;-75
2023/04/24 05:23:48;;;;;;;16.10;9.82;;;;;;;15.78;63.75;99007.56;4449507;32;34598;-75
2023/04/24 05:26:19;;;;;;;15.70;10.85;;;;;;;15.62;64.14;99008.19;4460956;32;34419;-75
2023/04/24 05:28:46;;;;;;;;;;;;;;;15.77;64.37;99013.62;4456074;32;34185;-75
2023/04/24 05:31:14;;;;;;;;;;;;;;;15.94;64.25;99013.81;4458323;32;34308;-75
2023/04/24 05:33:42;;;;;;;;;;;;;;;15.85;63.87;99011.97;4453217;32;33299;-76
2023/04/24 05:36:10;;;;;;;;;;;;;;;16.14;62.93;99003.56;4452857;32;34359;-75
2023/04/24 05:38:37;;;;;;;;;;;;;;;15.70;64.69;99009.16;4452730;32;35207;-75
2023/04/24 05:41:05;;;;;;;;;;;;;;;15.86;64.01;99013.72;4453212;32;33656;-75
2023/04/24 05:43:32;;;;;;;;;;;;;;;16.14;63.11;99010.53;4465183;32;34253;-76
2023/04/24 05:45:59;;;;;;;;;;;;;;;16.17;62.98;99011.44;4453247;32;34347;-75
2023/04/24 05:48:27;;;;;;;;;;;;;;;16.26;62.09;99003.69;4452848;32;34083;-75
2023/04/24 05:50:54;;;;;;;;;;;;;;;16.29;62.67;99003.69;4453318;32;33811;-76
2023/04/24 05:53:22;;;;;;;;;;;;;;;15.87;63.64;99002.41;4448584;32;34884;-75
2023/04/24 05:55:50;;;;;;;;;;;;;;;15.81;63.48;99010.19;4450886;32;34389;-76
2023/04/24 05:58:18;;;;;;;;;;;;;;;15.96;63.07;99014.69;4457660;32;34982;-76
2023/04/24 06:00:46;;;;;;;;;;;;;;;16.34;62.48;99015.91;4461624;32;34066;-76
2023/04/24 06:03:14;;;;;;;;;;;;;;;16.17;63.02;99024.50;4455753;32;34211;-75
2023/04/24 06:05:42;;;;;;;;;;;;;;;16.42;62.18;99015.16;4454193;32;33546;-75
2023/04/24 06:08:09;;;;;;;;;;;;;;;16.34;61.93;99021.16;4449050;32;35319;-76
2023/04/24 06:10:37;;;;;;;;;;;;;;;16.59;61.71;99019.63;4458199;32;33891;-76
2023/04/24 06:13:05;;;;;;;;;;;;;;;16.32;61.87;99026.34;4457311;32;34106;-76
2023/04/24 06:15:33;;;;;;;;;;;;;;;16.58;61.92;99029.22;4462984;32;34924;-75
2023/04/24 06:18:00;;;;;;;;;;;;;;;16.56;62.31;99028.31;4474318;32;35282;-76
2023/04/24 06:20:28;;;;;;;;;;;;;;;16.11;64.17;99024.44;4473060;32;33482;-77
2023/04/24 06:22:55;;;;;;;;;;;;;;;16.39;63.56;99015.09;4458259;32;33976;-77
2023/04/24 06:25:24;;;;;;;;;;;;;;;16.40;62.78;99021.19;4471727;32;34135;-76
2023/04/24 06:27:51;;;;;;;;;;;;;;;16.75;62.46;99029.34;4481266;32;34223;-76
2023/04/24 06:30:19;;;;;;;;;;;;;;;16.27;64.18;99015.88;4468543;32;33880;-78
2023/04/24 06:32:46;;;;;;;;;;;;;;;16.35;65.30;99023.78;4471220;32;34090;-76
2023/04/24 06:35:15;;;;;;;;;;;;;;;16.86;63.00;99026.81;4468993;32;34570;-75
2023/04/24 06:37:42;;;;;;;;;;;;;;;16.87;62.97;99023.34;4483410;32;34004;-76
2023/04/24 06:40:10;;;;;;;;;;;;;;;16.85;63.30;99019.84;4460490;32;33507;-77
2023/04/24 06:42:37;;;;;;;;;;;;;;;17.23;61.96;99011.34;4478436;32;33494;-75
2023/04/24 06:45:07;;;;;;;;;;;;;;;16.56;63.72;99020.47;4477076;32;34188;-79
2023/04/24 06:47:35;;;;;;;;;;;;;;;16.42;63.99;99015.16;4474488;32;34560;-77
2023/04/24 06:50:02;;;;;;;;;;;;;;;16.78;63.53;99018.03;4484900;32;34385;-77
2023/04/24 06:52:32;;;;;;;;;;;;;;;16.68;63.59;99015.34;4468721;32;33791;-76
2023/04/24 06:55:01;;;;;;;;;;;;;;;17.10;62.46;99011.28;4470217;32;33780;-75
2023/04/24 06:57:28;;;;;;;;;;;;;;;16.96;62.98;99007.72;4450702;32;34003;-76
2023/04/24 06:59:55;;;;;;;;;;;;;;;16.66;64.04;99010.97;4470033;32;33710;-76
2023/04/24 07:02:23;;;;;;;;;;;;;;;16.95;62.40;99011.19;4462478;32;34215;-77
2023/04/24 07:04:50;;;;;;;;;;;;;;;17.24;61.74;99018.34;4466703;32;34037;-78
2023/04/24 07:07:18;;;;;;;;;;;;;;;17.37;61.09;98999.22;4466516;32;34909;-77
2023/04/24 07:09:45;;;;;;;;;;;;;;;16.63;63.08;99009.22;4461398;32;33485;-76
2023/04/24 07:12:13;;;;;;;;;;;;;;;16.84;62.82;99007.63;4466187;32;34132;-77
2023/04/24 07:14:40;;;;;;;;;;;;;;;16.80;62.53;99005.84;4476059;32;33855;-76
2023/04/24 07:17:08;;;;;;;;;;;;;;;17.12;61.95;99013.94;4470488;32;34403;-76
2023/04/24 07:19:35;;;;;;;;;;;;;;;17.10;61.90;99008.69;4472354;32;33621;-76
2023/04/24 07:22:03;;;;;;;;;;;;;;;16.86;62.75;98998.06;4471945;32;34585;-76
2023/04/24 07:24:32;;;;;;;;;;;;;;;17.65;60.47;99007.19;4460436;32;33077;-76
2023/04/24 07:27:00;;;;;;;;;;;;;;;17.99;59.56;99000.31;4476581;32;34835;-77
2023/04/24 07:29:28;;;;;;;;;;;;;;;18.15;60.01;98993.34;4472662;32;34156;-75
2023/04/24 07:31:56;;;;;;;;;;;;;;;17.49;61.32;98993.16;4481594;32;34958;-76
2023/04/24 07:34:23;;;;;;;;;;;;;;;17.92;59.98;99002.94;4469974;32;34314;-76
2023/04/24 07:36:51;;;;;;;;;;;;;;;18.65;58.35;98996.88;4476897;32;35078;-76
2023/04/24 07:39:18;;;;;;;;;;;;;;;18.98;56.95;99000.34;4475008;32;34262;-76
2023/04/24 07:41:46;;;;;;;;;;;;;;;18.70;57.80;99005.63;4482601;32;34851;-76
2023/04/24 07:44:13;;;;;;;;;;;;;;;19.47;55.90;98999.31;4472072;32;34058;-76
2023/04/24 07:46:41;;;;;;;;;;;;;;;19.13;56.30;98999.44;4470980;32;34266;-76
2023/04/24 07:49:08;;;;;;;;;;;;;;;19.79;56.07;99001.84;4454663;32;34477;-76
2023/04/24 07:51:41;;;;;;;;;;;;;;;19.93;55.15;99001.75;4461195;32;34618;-77
2023/04/24 07:54:08;;;;;;;;;;;;;;;20.38;53.77;98999.72;4445948;32;33993;-76
2023/04/24 07:56:38;;;;;;;;;;;;;;;20.62;54.77;99010.03;4470758;32;34561;-77
2023/04/24 07:59:06;;;;;;;;;;;;;;;21.83;50.59;98998.19;4476925;32;33438;-76
2023/04/24 08:01:33;;;;;;;;;;;;;;;22.07;48.59;99003.13;4450569;32;34027;-76
2023/04/24 08:04:01;;;;;;;;;;;;;;;21.51;50.77;98988.97;4471395;32;34973;-78
2023/04/24 08:06:30;;;;;;;;;;;;;;;20.83;51.79;98997.59;4480130;32;34345;-77
2023/04/24 08:08:57;;;;;;;;;;;;;;;19.49;55.16;98992.31;4463271;32;33621;-76
2023/04/24 08:11:25;;;;;;;;;;;;;;;19.14;56.25;99001.19;4466553;32;35032;-78
2023/04/24 08:13:54;;;;;;;;;;;;;;;19.98;54.88;98994.72;4458183;32;33768;-77
2023/04/24 08:16:23;;;;;;;;;;;;;;;19.83;54.53;98993.91;4465201;32;34180;-77
2023/04/24 08:18:51;;;;;;;;;;;;;;;18.93;57.41;98992.50;4477875;32;34139;-77
2023/04/24 08:21:18;;;;;;;;;;;;;;;18.67;58.92;99003.84;4479699;32;34246;-77
2023/04/24 08:23:45;;;;;;;;;;;;;;;18.26;61.34;98999.47;4470398;32;34168;-75
2023/04/24 08:26:13;;;;;;;;;;;;;;;17.60;63.98;98998.44;4471014;32;34069;-78
2023/04/24 08:28:40;;;;;;;;;;;;;;;17.96;62.68;99002.94;4475634;32;34018;-79
2023/04/24 08:31:07;;;;;;;;;;;;;;;18.78;59.82;98993.34;4474949;32;35501;-76
2023/04/24 08:33:35;;;;;;;;;;;;;;;18.85;58.99;98989.91;4471185;32;33855;-76
2023/04/24 08:36:03;;;;;;;;;;;;;;;18.50;59.38;98992.50;4456220;32;34657;-77
2023/04/24 08:38:30;;;;;;;;;;;;;;;18.45;59.97;98995.13;4465384;32;33769;-77
2023/04/24 08:40:59;;;;;;;;;;;;;;;18.78;61.30;98995.97;4458215;32;34020;-76
2023/04/24 08:43:26;;;;;;;;;;;;;;;18.59;59.47;98997.75;4469478;32;34299;-75
2023/04/24 08:45:57;;;;;;;;;;;;;;;19.13;57.81;98989.81;4467696;32;33914;-77
2023/04/24 08:48:25;;;;;;;;;;;;;;;19.74;56.64;98999.25;4451751;32;34067;-77
2023/04/24 08:50:58;;;;;;;;;;;;;;;19.38;58.18;98995.84;4453910;32;34157;-77
2023/04/24 08:53:26;;;;;;;;;;;;;;;19.16;57.77;98994.19;4479465;32;33964;-77
2023/04/24 08:55:54;;;;;;;;;;;;;;;18.72;58.94;99000.38;4480391;32;34258;-76
2023/04/24 08:58:22;;;;;;;;;;;;;;;19.57;57.29;98986.16;4463580;32;33452;-76
2023/04/24 09:00:49;;;;;;;;;;;;;;;19.29;57.07;98985.38;4474941;32;33675;-77
2023/04/24 09:03:16;;;;;;;;;;;;;;;19.54;54.37;98982.66;4466443;32;34738;-77
2023/04/24 09:05:45;;;;;;;;;;;;;;;20.04;56.04;98981.53;4469557;32;34170;-78
2023/04/24 09:08:13;;;;;;;;;;;;;;;18.94;55.76;98983.72;4452964;32;33159;-76
2023/04/24 09:10:41;;;;;;;;;;;;;;;19.84;52.84;98979.06;4471685;32;34834;-77
2023/04/24 09:13:10;;;;;;;;;;;;;;;19.52;56.74;98987.06;4457117;32;34913;-76
2023/04/24 09:15:38;;;;;;;;;;;;;;;19.35;54.14;98980.09;4468516;32;34718;-77
2023/04/24 09:18:05;;;;;;;;;;;;;;;20.39;51.02;98977.78;4467235;32;33566;-78
2023/04/24 09:20:33;;;;;;;;;;;;;;;20.44;50.06;98970.72;4454070;32;33769;-77
2023/04/24 09:23:00;;;;;;;;;;;;;;;19.54;52.40;98974.78;4466586;32;34873;-76
2023/04/24 09:25:31;;;;;;;;;;;;;;;19.44;55.02;98966.94;4468554;32;34659;-75
2023/04/24 09:28:02;;;;;;;;;;;;;;;19.60;53.25;98959.84;4446354;32;33278;-76
2023/04/24 09:30:30;;;;;;;;;;;;;;;20.60;53.19;98969.72;4463096;32;33792;-76
2023/04/24 09:33:10;;;;;;;;;;;;;;;19.57;54.47;98969.53;4465712;32;34118;-76
2023/04/24 09:35:40;;;;;;;;;;;;;;;19.90;55.08;98960.59;4460270;32;34458;-76
2023/04/24 09:38:07;;;;;;;;;;;;;;;20.22;54.00;98960.38;4439111;32;33000;-78
2023/04/24 09:40:34;;;;;;;;;;;;;;;20.08;54.06;98962.22;4467492;32;34264;-74
2023/04/24 09:43:02;;;;;;;;;;;;;;;19.69;54.89;98956.31;4467526;32;33359;-76
2023/04/24 09:45:36;;;;;;;;;;;;;;;19.40;54.62;98962.59;4471590;32;34402;-77
2023/04/24 09:48:06;;;;;;;;;;;;;;;19.48;55.40;98961.69;4443939;32;31756;-77
2023/04/24 09:50:34;;;;;;;;;;;;;;;20.68;53.04;98950.38;4468113;32;34336;-76
2023/04/24 09:53:02;;;;;;;;;;;;;;;19.22;54.65;98950.41;4467991;32;35062;-75
2023/04/24 09:55:31;;;;;;;;;;;;;;;19.57;55.79;98948.53;4462146;32;33567;-77
2023/04/24 09:58:00;;;;;;;;;;;;;;;19.66;54.20;98953.69;4467285;32;33527;-77
2023/04/24 10:00:28;;;;;;;;;;;;;;;20.02;54.06;98957.03;4454100;32;33548;-77
2023/04/24 10:02:55;;;;;;;;;;;;;;;19.75;53.44;98950.19;4459849;32;33946;-76
2023/04/24 10:05:23;;;;;;;;;;;;;;;19.94;53.54;98949.19;4459396;32;34468;-75
2023/04/24 10:07:51;;;;;;;;;;;;;;;20.05;51.92;98951.75;4467207;32;34018;-76
2023/04/24 10:10:18;;;;;;;;;;;;;;;19.93;53.50;98954.44;4467435;32;35082;-77
2023/04/24 10:12:45;;;;;;;;;;;;;;;20.48;52.70;98955.78;4467872;32;33985;-75
2023/04/24 10:15:13;;;;;;;;;;;;;;;20.06;52.51;98950.84;4468058;32;34489;-76
2023/04/24 10:17:41;;;;;;;;;;;;;;;19.54;54.95;98948.53;4463327;32;33312;-76
2023/04/24 10:20:08;;;;;;;;;;;;;;;19.28;54.87;98956.50;4463722;32;35911;-78
2023/04/24 10:22:36;;;;;;;;;;;;;;;19.56;54.43;98952.00;4457794;32;35013;-78
2023/04/24 10:25:04;;;;;;;;;;;;;;;19.88;53.23;98943.13;4474536;32;35095;-76
2023/04/24 10:27:31;;;;;;;;;;;;;;;19.46;54.43;98951.19;4465525;32;31946;-77
2023/04/24 10:29:58;;;;;;;;;;;;;;;19.61;53.50;98947.63;4470667;32;34205;-79
2023/04/24 10:32:26;;;;;;;;;;;;;;;20.12;53.08;98945.53;4462639;32;33722;-78
2023/04/24 10:34:54;;;;;;;;;;;;;;;19.24;54.34;98939.91;4468664;32;34289;-78
2023/04/24 10:37:22;;;;;;;;;;;;;;;18.70;55.59;98936.50;4451408;32;33923;-78
2023/04/24 10:39:51;;;;;;;;;;;;;;;18.64;55.59;98937.44;4456043;32;33603;-77
2023/04/24 10:42:18;;;;;;;;;;;;;;;18.40;56.99;98954.06;4452437;32;33885;-81
2023/04/24 10:44:47;;;;;;;;;;;;;;;18.28;56.63;98950.56;4464846;32;34430;-79
2023/04/24 10:47:14;;;;;;;;;;;;;;;18.34;57.98;98954.06;4470916;32;34846;-78
2023/04/24 10:49:42;;;;;;;;;;;;;;;18.45;57.36;98947.94;4467795;32;33885;-79
2023/04/24 10:52:09;;;;;;;;;;;;;;;18.42;57.60;98947.06;4444185;32;34884;-81
2023/04/24 10:54:46;;;;;;;;;;;;;;;18.58;57.25;98938.31;4447618;32;34938;-79
2023/04/24 10:57:20;;;;;;;;;;;;;;;18.35;57.95;98940.06;4455081;32;33428;-80
2023/04/24 11:00:06;;;;;;;;;;;;;;;18.52;57.63;98925.19;4478543;32;34150;-77
2023/04/24 11:02:38;;;;;;;;;;;;;;;18.77;56.60;98922.53;4472236;32;34112;-77
2023/04/24 11:05:06;;;;;;;;;;;;;;;19.12;56.92;98925.06;4465492;32;35021;-78
2023/04/24 11:07:53;;;;;;;;;;;;;;;19.27;56.88;98918.00;4467499;32;34242;-80
2023/04/24 11:10:27;;;;;;;;;;;;;;;19.04;54.02;98914.62;4420403;32;32530;-76
2023/04/24 11:12:54;;;;;;;;;;;;;;;19.07;53.63;98899.72;4445421;32;34170;-78
2023/04/24 11:15:22;;;;;;;;;;;;;;;18.97;51.84;98904.16;4465867;32;33729;-77
2023/04/24 11:17:50;;;;;;;;;;;;;;;19.10;52.18;98910.19;4465176;32;33398;-79
2023/04/24 11:20:17;;;;;;;;;;;;;;;19.27;52.78;98903.13;4464700;32;34630;-79
2023/04/24 11:22:55;;;;;;;;;;;;;;;18.94;53.05;98910.25;4465617;32;34139;-79
2023/04/24 11:25:24;;;;;;;;;;;;;;;19.10;52.53;98905.81;4469089;32;34502;-80
2023/04/24 11:27:52;;;;;;;;;;;;;;;18.89;51.91;98903.28;4460999;32;33702;-78
2023/04/24 11:30:20;;;;;;;;;;;;;;;19.07;52.19;98907.59;4454406;32;34283;-78
2023/04/24 11:32:48;;;;;;;;;;;;;;;19.13;52.31;98910.19;4469162;32;34913;-78
2023/04/24 11:35:24;;;;;;;;;;;;;;;18.99;52.85;98900.62;4469090;32;35013;-77
2023/04/24 11:37:53;;;;;;;;;;;;;;;19.32;53.56;98896.09;4466272;32;33606;-77
2023/04/24 11:40:40;;;;;;;;;;;;;;;19.20;51.12;98893.53;4463141;32;34226;-75
2023/04/24 11:43:08;;;;;;;;;;;;;;;19.52;50.65;98890.72;4457639;32;34028;-78
2023/04/24 11:45:35;;;;;;;;;;;;;;;19.53;49.76;98883.72;4464328;32;33907;-79
2023/04/24 11:48:03;;;;;;;;;;;;;;;19.31;49.98;98888.22;4468709;32;32814;-77
2023/04/24 11:50:31;;;;;;;;;;;;;;;19.27;50.30;98887.38;4457707;32;34034;-80
2023/04/24 11:53:00;;;;;;;;;;;;;;;19.63;50.36;98881.03;4470505;32;33974;-77
2023/04/24 11:55:28;;;;;;;;;;;;;;;19.68;48.91;98875.75;4466467;32;34973;-79
2023/04/24 11:57:56;;;;;;;;;;;;;;;19.64;49.11;98881.91;4469431;32;33710;-79
2023/04/24 12:00:27;;;;;;;;;;;;;;;19.73;48.46;98876.62;4456402;32;34810;-79
2023/04/24 12:03:06;;;;;;;;;;;;;;;19.96;48.00;98872.97;4469288;32;34547;-79
2023/04/24 12:05:34;;;;;;;;;;;;;;;20.17;46.67;98872.78;4469017;32;34450;-78
2023/04/24 12:08:02;;;;;;;;;;;;;;;19.98;46.38;98879.06;4467613;32;33471;-78
2023/04/24 12:10:30;;;;;;;;;;;;;;;19.81;47.49;98872.19;4467743;32;33785;-78
2023/04/24 12:12:58;;;;;;;;;;;;;;;20.13;47.31;98872.81;4466577;32;34296;-78
2023/04/24 12:15:25;;;;;;;;;;;;;;;19.49;48.03;98869.75;4467637;32;34172;-78
2023/04/24 12:17:53;;;;;;;;;;;;;;;19.31;48.53;98873.34;4467692;32;33523;-76
2023/04/24 12:20:27;;;;;;;;;;;;;;;19.31;49.66;98870.72;4468486;32;34807;-77
2023/04/24 12:22:58;;;;;;;;;;;;;;;19.41;49.98;98872.44;4468914;32;33706;-78
2023/04/24 12:25:27;;;;;;;;;;;;;;;19.78;49.66;98869.59;4469104;32;34375;-75
2023/04/24 12:28:04;;;;;;;;;;;;;;;19.20;49.86;98854.12;4466337;32;33941;-77
2023/04/24 12:30:33;;;;;;;;;;;;;;;19.04;49.72;98854.25;4457787;32;34673;-77
2023/04/24 12:33:00;;;;;;;;;;;;;;;19.16;50.60;98857.66;4461944;32;34708;-76
2023/04/24 12:35:28;;;;;;;;;;;;;;;18.98;50.32;98859.50;4453961;32;34422;-76
2023/04/24 12:37:56;;;;;;;;;;;;;;;19.37;50.57;98865.47;4466816;32;33478;-77
2023/04/24 12:40:24;;;;;;;;;;;;;;;19.23;49.25;98865.50;4456850;32;34053;-76
2023/04/24 12:42:52;;;;;;;;;;;;;;;19.32;49.39;98848.84;4468973;32;34678;-79
2023/04/24 12:45:23;;;;;;;;;;;;;;;19.17;49.67;98846.31;4466323;32;34446;-77
2023/04/24 12:47:50;;;;;;;;;;;;;;;19.60;49.30;98853.91;4468523;32;32615;-76
2023/04/24 12:50:18;;;;;;;;;;;;;;;19.44;49.40;98848.75;4472772;32;34123;-78